createdAt,value
2022-12-11T00:02:10.443Z,30.77
2022-12-11T00:07:39.893Z,26.30
2022-12-11T00:13:09.725Z,40.93
2022-12-11T00:18:39.084Z,35.90
2022-12-11T00:24:09.555Z,36.95
2022-12-11T00:29:39.992Z,32.40
2022-12-11T00:35:10.243Z,28.17
2022-12-11T00:40:39.537Z,33.80
2022-12-11T00:46:10.408Z,29.60
2022-12-11T00:51:39.742Z,45.28
2022-12-11T00:57:08.651Z,35.28
2022-12-11T01:02:39.024Z,27.40
2022-12-11T01:08:08.145Z,24.58
2022-12-11T01:13:38.360Z,19.30
2022-12-11T01:19:09.057Z,19.15
2022-12-11T01:24:38.158Z,26.92
2022-12-11T01:30:09.593Z,16.98
2022-12-11T01:35:40.854Z,28.55
2022-12-11T01:41:10.335Z,30.23
2022-12-11T01:46:40.019Z,39.15
2022-12-11T01:52:09.414Z,29.27
2022-12-11T01:57:38.097Z,34.08
2022-12-11T02:03:06.507Z,27.90
2022-12-11T02:08:36.983Z,37.58
2022-12-11T02:14:11.757Z,37.47
2022-12-11T02:19:50.279Z,29.67
2022-12-11T02:25:26.946Z,37.37
2022-12-11T02:30:55.404Z,30.05
2022-12-11T02:36:23.700Z,31.77
2022-12-11T02:41:53.210Z,35.13
2022-12-11T02:47:21.687Z,29.02
2022-12-11T02:52:46.895Z,30.30
2022-12-11T02:58:15.730Z,33.78
2022-12-11T03:09:09.481Z,35.00
2022-12-11T03:14:36.535Z,27.50
2022-12-11T03:20:07.613Z,44.88
2022-12-11T03:25:45.626Z,33.60
2022-12-11T03:31:12.908Z,53.70
2022-12-11T03:36:40.125Z,49.33
2022-12-11T03:42:13.095Z,32.55
2022-12-11T03:47:39.453Z,35.65
2022-12-11T03:53:10.320Z,32.92
2022-12-11T03:58:34.382Z,32.83
2022-12-11T04:04:03.711Z,28.88
2022-12-11T04:09:28.709Z,35.08
2022-12-11T04:15:05.902Z,29.85
2022-12-11T04:20:52.342Z,28.48
2022-12-11T04:26:21.073Z,32.10
2022-12-11T04:31:50.678Z,32.22
2022-12-11T04:37:18.176Z,22.30
2022-12-11T04:42:48.963Z,32.53
2022-12-11T04:48:12.749Z,25.67
2022-12-11T04:53:40.669Z,33.55
2022-12-11T04:59:05.467Z,25.92
2022-12-11T05:04:35.796Z,21.83
2022-12-11T05:09:59.047Z,20.98
2022-12-11T05:15:24.671Z,27.80
2022-12-11T05:20:56.968Z,28.30
2022-12-11T05:26:25.455Z,25.08
2022-12-11T05:31:50.432Z,22.90
2022-12-11T05:37:15.561Z,31.98
2022-12-11T05:42:39.971Z,35.63
2022-12-11T05:48:06.694Z,28.98
2022-12-11T05:53:31.021Z,38.85
2022-12-11T05:58:59.086Z,49.80
2022-12-11T06:04:23.805Z,55.35
2022-12-11T06:09:47.326Z,68.53
2022-12-11T06:15:11.558Z,48.33
2022-12-11T06:20:36.948Z,44.17
2022-12-11T06:26:00.090Z,51.35
2022-12-11T06:31:24.214Z,53.65
2022-12-11T06:36:49.370Z,36.33
2022-12-11T06:42:13.483Z,40.90
2022-12-11T06:47:36.966Z,37.80
2022-12-11T06:53:02.990Z,31.33
2022-12-11T06:58:29.057Z,33.25
2022-12-11T07:03:54.743Z,34.53
2022-12-11T07:09:19.532Z,32.45
2022-12-11T07:14:48.831Z,35.85
2022-12-11T07:20:12.171Z,39.47
2022-12-11T07:25:38.523Z,44.22
2022-12-11T07:31:06.445Z,35.25
2022-12-11T07:36:30.822Z,33.35
2022-12-11T07:48:10.344Z,36.63
2022-12-11T07:53:35.502Z,35.17
2022-12-11T07:59:06.478Z,46.05
2022-12-11T08:04:31.489Z,40.28
2022-12-11T08:10:03.648Z,29.80
2022-12-11T08:15:26.537Z,34.38
2022-12-11T08:20:57.031Z,34.97
2022-12-11T08:26:23.344Z,29.65
2022-12-11T08:31:51.809Z,34.38
2022-12-11T08:37:16.423Z,32.08
2022-12-11T08:42:45.525Z,30.33
2022-12-11T08:48:10.109Z,26.65
2022-12-11T08:54:03.015Z,28.15
2022-12-11T08:59:29.705Z,26.05
2022-12-11T09:05:01.595Z,34.10
2022-12-11T09:10:27.210Z,25.80
2022-12-11T09:15:56.906Z,17.70
2022-12-11T09:21:27.580Z,21.73
2022-12-11T09:26:56.665Z,26.23
2022-12-11T09:32:22.331Z,27.98
2022-12-11T09:37:49.356Z,28.80
2022-12-11T09:43:28.127Z,30.05
2022-12-11T09:48:54.271Z,23.15
2022-12-11T09:54:16.904Z,27.95
2022-12-11T10:00:05.714Z,29.15
2022-12-11T10:05:38.429Z,22.58
2022-12-11T10:11:28.301Z,22.77
2022-12-11T10:17:03.565Z,21.67
2022-12-11T10:22:37.790Z,20.23
2022-12-11T10:28:13.601Z,31.30
2022-12-11T10:33:57.573Z,19.83
2022-12-11T10:39:28.447Z,27.05
2022-12-11T10:45:02.107Z,20.45
2022-12-11T10:50:31.542Z,22.48
2022-12-11T10:56:03.325Z,22.73
2022-12-11T11:01:32.636Z,16.90
2022-12-11T11:07:12.881Z,17.70
2022-12-11T11:13:07.848Z,14.73
2022-12-11T11:18:36.997Z,21.02
2022-12-11T11:24:06.400Z,19.15
2022-12-11T11:29:37.798Z,15.80
2022-12-11T11:35:27.251Z,18.73
2022-12-11T11:41:04.809Z,15.18
2022-12-11T11:46:44.151Z,17.17
2022-12-11T11:58:06.306Z,17.25
2022-12-11T12:03:37.410Z,18.50
2022-12-11T12:09:24.151Z,15.40
2022-12-11T12:15:06.012Z,16.38
2022-12-11T12:20:44.401Z,16.80
2022-12-11T12:26:19.451Z,17.25
2022-12-11T12:32:18.808Z,29.33
2022-12-11T12:37:58.465Z,16.05
2022-12-11T12:43:48.358Z,18.75
2022-12-11T12:49:23.241Z,17.58
2022-12-11T12:55:16.124Z,19.55
2022-12-11T13:00:45.670Z,16.55
2022-12-11T13:06:14.412Z,18.35
2022-12-11T13:11:43.210Z,18.25
2022-12-11T13:17:26.070Z,18.48
2022-12-11T13:23:16.475Z,16.58
2022-12-11T13:28:51.868Z,15.70
2022-12-11T13:34:26.413Z,24.38
2022-12-11T13:39:51.502Z,22.27
2022-12-11T13:45:25.181Z,12.05
2022-12-11T13:50:54.705Z,14.73
2022-12-11T13:56:26.748Z,15.18
2022-12-11T14:01:52.094Z,20.23
2022-12-11T14:07:28.518Z,27.58
2022-12-11T14:12:55.735Z,18.10
2022-12-11T14:18:28.570Z,16.35
2022-12-11T14:24:00.547Z,23.25
2022-12-11T14:29:33.353Z,19.60
2022-12-11T14:35:08.354Z,27.10
2022-12-11T14:40:39.384Z,16.67
2022-12-11T14:46:15.997Z,14.63
2022-12-11T14:51:46.490Z,16.75
2022-12-11T14:57:14.531Z,13.68
2022-12-11T15:02:41.766Z,20.27
2022-12-11T15:08:30.606Z,14.40
2022-12-11T15:14:05.936Z,16.75
2022-12-11T15:19:36.350Z,16.48
2022-12-11T15:25:20.094Z,10.82
2022-12-11T15:30:46.257Z,15.07
2022-12-11T15:36:26.693Z,19.92
2022-12-11T15:42:23.889Z,15.85
2022-12-11T15:48:14.873Z,21.27
2022-12-11T15:55:19.365Z,18.40
2022-12-11T16:14:23.622Z,27.13
2022-12-11T16:19:51.914Z,27.60
2022-12-11T16:25:15.494Z,17.38
2022-12-11T16:30:40.334Z,19.90
2022-12-11T16:36:15.162Z,27.35
2022-12-11T16:41:40.270Z,25.67
2022-12-11T16:47:05.298Z,24.08
2022-12-11T16:52:39.269Z,36.65
2022-12-11T16:58:06.074Z,34.33
2022-12-11T17:03:37.942Z,21.95
2022-12-11T17:09:03.574Z,25.67
2022-12-11T17:14:30.531Z,23.35
2022-12-11T17:20:00.110Z,28.17
2022-12-11T17:25:32.763Z,23.65
2022-12-11T17:31:08.692Z,19.75
2022-12-11T17:36:40.149Z,35.95
2022-12-11T17:42:10.343Z,27.73
2022-12-11T17:47:38.192Z,32.20
2022-12-11T17:53:06.930Z,30.15
2022-12-11T17:58:37.442Z,26.58
2022-12-11T18:04:02.660Z,24.65
2022-12-11T18:09:28.318Z,22.30
2022-12-11T18:15:02.458Z,22.73
2022-12-11T18:20:32.597Z,27.73
2022-12-11T18:26:01.882Z,23.55
2022-12-11T18:31:29.660Z,30.83
2022-12-11T18:36:56.251Z,29.38
2022-12-11T18:42:35.165Z,20.75
2022-12-11T18:48:03.873Z,19.30
2022-12-11T18:53:33.063Z,21.23
2022-12-11T18:59:01.932Z,18.87
2022-12-11T19:04:32.630Z,26.15
2022-12-11T19:09:58.504Z,20.02
2022-12-11T19:15:24.650Z,17.45
2022-12-11T19:21:06.496Z,22.85
2022-12-11T19:26:37.083Z,17.88
2022-12-11T19:32:06.702Z,16.20
2022-12-11T19:37:37.298Z,26.65
2022-12-11T19:43:05.887Z,22.13
2022-12-11T19:48:35.677Z,26.25
2022-12-11T19:54:03.003Z,16.05
2022-12-11T19:59:31.848Z,19.23
2022-12-11T20:04:55.603Z,22.98
2022-12-11T20:10:29.558Z,27.58
2022-12-11T20:15:52.356Z,21.55
2022-12-11T20:21:22.630Z,18.05
2022-12-11T20:26:48.788Z,28.45
2022-12-11T20:32:21.064Z,22.08
2022-12-11T20:37:51.274Z,18.73
2022-12-11T20:43:17.526Z,33.47
2022-12-11T20:48:47.911Z,24.00
2022-12-11T20:54:10.670Z,25.38
2022-12-11T20:59:41.243Z,27.80
2022-12-11T21:05:06.764Z,23.10
2022-12-11T21:10:35.937Z,22.30
2022-12-11T21:16:08.747Z,23.92
2022-12-11T21:21:39.770Z,19.17
2022-12-11T21:27:11.519Z,21.05
2022-12-11T21:32:36.372Z,18.48
2022-12-11T21:38:05.794Z,20.30
2022-12-11T21:43:28.749Z,22.00
2022-12-11T21:48:59.213Z,21.35
2022-12-11T21:54:28.673Z,16.80
2022-12-11T21:59:58.013Z,20.45
2022-12-11T22:05:28.821Z,18.50
2022-12-11T22:11:02.121Z,18.50
2022-12-11T22:16:25.588Z,18.95
2022-12-11T22:22:13.975Z,15.80
2022-12-11T22:27:40.742Z,25.40
2022-12-11T22:33:31.611Z,17.70
2022-12-11T22:39:01.448Z,17.45
2022-12-11T22:44:29.509Z,20.77
2022-12-11T22:50:00.862Z,15.48
2022-12-11T22:55:31.184Z,14.15
2022-12-11T23:00:47.059Z,15.70
2022-12-11T23:06:17.974Z,15.27
2022-12-11T23:11:43.045Z,16.15
2022-12-11T23:17:14.320Z,14.75
2022-12-11T23:22:44.565Z,15.88
2022-12-11T23:28:15.676Z,13.75
2022-12-11T23:33:43.541Z,15.32
2022-12-11T23:39:13.007Z,13.85
2022-12-11T23:44:43.045Z,14.43
2022-12-11T23:50:19.591Z,10.77
2022-12-11T23:55:50.019Z,15.93
